createdAt,value
2019-05-06T00:00:55.348Z,53.10
2019-05-06T00:05:46.324Z,53.27
2019-05-06T00:10:48.014Z,53.32
2019-05-06T00:15:49.622Z,53.39
2019-05-06T00:20:51.274Z,53.41
2019-05-06T00:26:13.653Z,53.41
2019-05-06T00:31:17.160Z,53.50
2019-05-06T00:36:18.799Z,53.58
2019-05-06T00:41:25.127Z,53.63
2019-05-06T00:46:26.936Z,53.76
2019-05-06T00:51:28.627Z,53.90
2019-05-06T01:01:30.245Z,54.02
2019-05-06T01:06:33.866Z,54.06
2019-05-06T01:11:35.498Z,54.49
2019-05-06T01:16:37.403Z,54.88
2019-05-06T01:21:39.077Z,54.81
2019-05-06T01:26:40.759Z,54.64
2019-05-06T01:31:43.791Z,54.53
2019-05-06T01:36:46.615Z,54.53
2019-05-06T01:42:04.412Z,54.32
2019-05-06T01:47:06.184Z,54.26
2019-05-06T01:52:07.939Z,54.28
2019-05-06T01:57:09.513Z,54.28
2019-05-06T02:02:11.191Z,54.35
2019-05-06T02:07:14.458Z,54.35
2019-05-06T02:12:16.248Z,54.44
2019-05-06T02:17:17.799Z,54.53
2019-05-06T02:22:34.607Z,54.69
2019-05-06T02:27:36.250Z,54.78
2019-05-06T02:32:50.051Z,54.90
2019-05-06T02:37:51.597Z,54.90
2019-05-06T02:42:54.751Z,54.96
2019-05-06T02:48:06.224Z,54.97
2019-05-06T02:53:07.887Z,55.01
2019-05-06T02:58:09.544Z,55.21
2019-05-06T03:03:13.983Z,55.10
2019-05-06T03:08:14.767Z,55.05
2019-05-06T03:13:16.401Z,55.16
2019-05-06T03:18:18.059Z,55.28
2019-05-06T03:23:23.719Z,55.42
2019-05-06T03:28:24.899Z,55.55
2019-05-06T03:33:47.659Z,55.64
2019-05-06T03:38:33.225Z,55.75
2019-05-06T03:43:34.066Z,55.76
2019-05-06T03:48:38.396Z,55.81
2019-05-06T03:53:43.153Z,55.90
2019-05-06T03:58:44.078Z,56.01
2019-05-06T04:03:51.564Z,55.94
2019-05-06T04:08:49.358Z,55.98
2019-05-06T04:13:53.465Z,55.98
2019-05-06T04:19:09.444Z,56.10
2019-05-06T04:24:27.763Z,56.21
2019-05-06T04:29:29.423Z,56.19
2019-05-06T04:34:33.300Z,56.23
2019-05-06T04:39:34.754Z,56.27
2019-05-06T04:44:36.283Z,56.40
2019-05-06T04:49:37.861Z,56.45
2019-05-06T04:54:39.481Z,56.50
2019-05-06T04:59:43.221Z,56.58
2019-05-06T05:04:44.685Z,56.72
2019-05-06T05:09:46.562Z,56.78
2019-05-06T05:14:55.579Z,56.82
2019-05-06T05:19:57.230Z,56.84
2019-05-06T05:24:58.781Z,56.89
2019-05-06T05:30:01.962Z,56.96
2019-05-06T05:35:04.342Z,56.97
2019-05-06T05:40:06.117Z,57.01
2019-05-06T05:45:08.699Z,57.05
2019-05-06T05:50:16.807Z,57.08
2019-05-06T05:55:18.470Z,57.13
2019-05-06T06:00:22.476Z,57.12
2019-05-06T06:05:24.177Z,57.15
2019-05-06T06:10:52.465Z,57.21
2019-05-06T06:16:19.701Z,57.17
2019-05-06T06:21:29.488Z,57.14
2019-05-06T06:26:32.475Z,57.18
2019-05-06T06:31:40.315Z,57.16
2019-05-06T06:36:49.140Z,57.16
2019-05-06T06:41:51.918Z,57.08
2019-05-06T06:46:53.732Z,57.10
2019-05-06T06:51:55.495Z,57.11
2019-05-06T06:57:21.861Z,57.07
2019-05-06T07:02:43.254Z,57.05
2019-05-06T07:07:47.845Z,57.00
2019-05-06T07:12:48.977Z,56.91
2019-05-06T07:17:52.417Z,56.87
2019-05-06T07:22:54.021Z,56.86
2019-05-06T07:27:55.616Z,56.90
2019-05-06T07:33:00.427Z,56.92
2019-05-06T07:38:02.351Z,56.87
2019-05-06T07:43:23.904Z,56.68
2019-05-06T07:48:25.997Z,56.42
2019-05-06T07:53:27.679Z,56.44
2019-05-06T07:58:29.378Z,56.30
2019-05-06T08:03:32.943Z,56.05
2019-05-06T08:08:34.594Z,56.18
2019-05-06T08:13:36.223Z,56.33
2019-05-06T08:18:37.787Z,56.48
2019-05-06T08:23:44.148Z,56.55
2019-05-06T08:28:45.687Z,56.41
2019-05-06T08:33:47.359Z,56.18
2019-05-06T08:38:55.577Z,55.80
2019-05-06T08:43:58.415Z,55.62
2019-05-06T08:49:00.074Z,55.73
2019-05-06T08:54:05.921Z,55.91
2019-05-06T08:59:07.644Z,56.01
2019-05-06T09:04:12.802Z,56.13
2019-05-06T09:09:13.252Z,56.11
2019-05-06T09:14:14.899Z,56.00
2019-05-06T09:19:16.472Z,55.83
2019-05-06T09:24:18.169Z,55.39
2019-05-06T09:29:32.797Z,55.49
2019-05-06T09:34:43.658Z,55.58
2019-05-06T09:39:45.847Z,55.57
2019-05-06T09:44:50.494Z,55.49
2019-05-06T09:49:53.129Z,55.36
2019-05-06T09:55:23.361Z,55.26
2019-05-06T10:00:25.074Z,54.92
2019-05-06T10:05:26.776Z,54.10
2019-05-06T10:10:28.354Z,53.77
2019-05-06T10:15:32.407Z,53.85
2019-05-06T10:20:38.172Z,53.87
2019-05-06T10:25:39.966Z,53.87
2019-05-06T10:30:41.581Z,53.89
2019-05-06T10:35:43.322Z,53.87
2019-05-06T10:41:00.877Z,53.78
2019-05-06T10:45:52.510Z,53.60
2019-05-06T10:50:58.170Z,53.38
2019-05-06T10:56:06.438Z,53.13
2019-05-06T11:01:23.192Z,52.81
2019-05-06T11:06:24.991Z,52.49
2019-05-06T11:11:36.998Z,52.12
2019-05-06T11:16:33.132Z,51.75
2019-05-06T11:21:34.574Z,51.41
2019-05-06T11:26:36.258Z,51.23
2019-05-06T11:31:57.488Z,51.11
2019-05-06T11:37:18.717Z,50.92
2019-05-06T11:42:28.908Z,50.70
2019-05-06T11:47:23.888Z,50.18
2019-05-06T11:52:25.724Z,49.60
2019-05-06T11:57:27.302Z,49.77
2019-05-06T12:02:28.871Z,49.74
2019-05-06T12:07:33.037Z,48.84
2019-05-06T12:12:34.116Z,47.61
2019-05-06T12:17:35.797Z,48.50
2019-05-06T12:22:37.502Z,48.87
2019-05-06T12:27:45.185Z,48.97
2019-05-06T12:32:53.666Z,49.13
2019-05-06T12:37:57.473Z,49.25
2019-05-06T12:43:18.856Z,49.22
2019-05-06T12:48:24.406Z,49.16
2019-05-06T12:53:25.988Z,49.03
2019-05-06T12:58:27.732Z,48.70
2019-05-06T13:03:31.815Z,48.05
2019-05-06T13:08:52.951Z,48.13
2019-05-06T13:13:36.436Z,48.19
2019-05-06T13:18:38.196Z,48.34
2019-05-06T13:23:44.018Z,48.48
2019-05-06T13:28:50.227Z,48.44
2019-05-06T13:33:59.204Z,48.39
2019-05-06T13:39:13.498Z,48.27
2019-05-06T13:44:15.067Z,48.08
2019-05-06T13:49:25.210Z,48.08
2019-05-06T13:54:26.887Z,48.11
2019-05-06T13:59:31.002Z,47.97
2019-05-06T14:04:32.870Z,47.84
2019-05-06T14:09:39.956Z,47.59
2019-05-06T14:14:38.060Z,47.35
2019-05-06T14:19:42.613Z,47.00
2019-05-06T14:24:51.967Z,46.20
2019-05-06T14:29:58.085Z,44.80
2019-05-06T14:34:59.735Z,44.46
2019-05-06T14:40:03.532Z,44.00
2019-05-06T14:45:05.317Z,43.87
2019-05-06T14:50:07.088Z,44.86
2019-05-06T14:55:22.576Z,43.72
2019-05-06T15:00:24.042Z,44.23
2019-05-06T15:05:25.747Z,45.25
2019-05-06T15:10:27.321Z,45.90
2019-05-06T15:15:29.061Z,46.32
2019-05-06T15:20:34.100Z,46.56
2019-05-06T15:25:34.227Z,46.60
2019-05-06T15:30:45.572Z,46.63
2019-05-06T15:36:15.500Z,46.55
2019-05-06T15:41:17.032Z,46.36
2019-05-06T15:46:18.597Z,45.94
2019-05-06T15:51:33.450Z,45.25
2019-05-06T15:56:35.127Z,44.46
2019-05-06T16:01:36.699Z,44.19
2019-05-06T16:06:38.261Z,44.59
2019-05-06T16:11:41.879Z,44.66
2019-05-06T16:16:43.554Z,44.55
2019-05-06T16:21:45.391Z,44.81
2019-05-06T16:26:47.189Z,44.94
2019-05-06T16:31:48.876Z,45.10
2019-05-06T16:36:50.476Z,45.15
2019-05-06T16:41:52.336Z,45.10
2019-05-06T16:46:54.164Z,45.03
2019-05-06T16:51:55.876Z,45.13
2019-05-06T16:57:04.505Z,45.20
2019-05-06T17:02:13.985Z,45.22
2019-05-06T17:07:15.811Z,45.27
2019-05-06T17:12:17.525Z,45.35
2019-05-06T17:17:19.131Z,45.30
2019-05-06T17:22:22.823Z,43.85
2019-05-06T17:27:24.408Z,44.65
2019-05-06T17:32:38.038Z,44.92
2019-05-06T17:37:58.005Z,44.12
2019-05-06T17:42:59.567Z,45.10
2019-05-06T17:48:07.133Z,45.72
2019-05-06T17:53:08.659Z,45.93
2019-05-06T17:58:10.245Z,46.18
2019-05-06T18:03:11.862Z,46.06
2019-05-06T18:08:13.449Z,45.93
2019-05-06T18:13:15.018Z,46.14
2019-05-06T18:18:16.699Z,46.30
2019-05-06T18:23:18.270Z,46.46
2019-05-06T18:28:19.872Z,46.60
2019-05-06T18:33:22.553Z,46.70
2019-05-06T18:38:24.441Z,46.76
2019-05-06T18:43:26.008Z,46.85
2019-05-06T18:48:31.169Z,46.97
2019-05-06T18:53:33.213Z,47.11
2019-05-06T18:58:34.794Z,47.19
2019-05-06T19:03:52.543Z,47.28
2019-05-06T19:09:02.634Z,47.43
2019-05-06T19:14:04.305Z,47.55
2019-05-06T19:19:06.142Z,47.64
2019-05-06T19:24:08.060Z,47.77
2019-05-06T19:29:09.625Z,47.87
2019-05-06T19:34:12.906Z,48.01
2019-05-06T19:39:14.847Z,48.14
2019-05-06T19:44:16.607Z,48.17
2019-05-06T19:49:18.271Z,48.27
2019-05-06T19:54:19.845Z,48.32
2019-05-06T19:59:21.538Z,48.37
2019-05-06T20:04:23.829Z,48.48
2019-05-06T20:09:45.184Z,48.57
2019-05-06T20:14:46.878Z,48.60
2019-05-06T20:19:48.478Z,48.72
2019-05-06T20:24:52.064Z,48.83
2019-05-06T20:29:53.704Z,48.93
2019-05-06T20:34:55.323Z,48.96
2019-05-06T20:39:57.001Z,49.06
2019-05-06T20:44:58.691Z,49.19
2019-05-06T20:50:02.378Z,49.33
2019-05-06T20:55:12.750Z,49.47
2019-05-06T21:00:08.144Z,49.59
2019-05-06T21:05:13.671Z,49.62
2019-05-06T21:10:15.161Z,49.70
2019-05-06T21:15:17.310Z,49.88
2019-05-06T21:20:18.986Z,49.97
2019-05-06T21:25:22.623Z,50.01
2019-05-06T21:30:24.174Z,50.05
2019-05-06T21:35:25.750Z,50.05
2019-05-06T21:40:27.307Z,50.01
2019-05-06T21:45:28.995Z,50.08
2019-05-06T21:50:32.865Z,50.16
2019-05-06T21:55:34.002Z,50.30
2019-05-06T22:00:48.858Z,50.48
2019-05-06T22:05:54.276Z,50.75
2019-05-06T22:10:54.038Z,50.88
2019-05-06T22:15:55.727Z,50.98
2019-05-06T22:21:17.992Z,51.15
2019-05-06T22:26:19.729Z,51.19
2019-05-06T22:31:23.833Z,51.29
2019-05-06T22:36:25.227Z,51.49
2019-05-06T22:41:26.915Z,51.65
2019-05-06T22:46:28.478Z,51.79
2019-05-06T22:51:32.240Z,51.72
2019-05-06T22:56:33.781Z,51.76
2019-05-06T23:01:47.199Z,51.89
2019-05-06T23:06:48.878Z,52.05
2019-05-06T23:11:50.444Z,52.16
2019-05-06T23:16:52.232Z,52.23
2019-05-06T23:21:53.953Z,52.34
2019-05-06T23:26:55.740Z,52.54
2019-05-06T23:31:57.429Z,52.50
2019-05-06T23:37:19.157Z,52.56
2019-05-06T23:42:58.228Z,52.65
2019-05-06T23:48:36.971Z,52.68
2019-05-06T23:54:15.688Z,52.78
2019-05-06T23:59:17.492Z,52.81
